Time;durP1;ratioP1;P1;durP2;ratioP2;P2;SDS_P1;SDS_P2;PMS_P1;PMS_P2;Temp;Humidity;BMP_temperature;BMP_pressure;BME280_temperature;BME280_humidity;BME280_pressure;Samples;Min_cycle;Max_cycle;Signal;HPM_P1;HPM_P2
2023/03/23 00:00:44;;;;;;;5.95;2.60;;;;;;;13.69;44.72;97197.41;10174227;29;20115;-75
2023/03/23 00:06:06;;;;;;;6.43;2.58;;;;;;;13.63;44.33;97197.84;10173955;29;20071;-74
2023/03/23 00:11:28;;;;;;;6.72;2.60;;;;;;;13.61;44.47;97199.84;10187194;29;20179;-75
2023/03/23 00:16:48;;;;;;;4.70;2.58;;;;;;;13.55;44.72;97197.47;10187394;29;20467;-75
2023/03/23 00:22:08;;;;;;;4.10;2.15;;;;;;;13.47;44.56;97199.88;10186648;29;20171;-75
2023/03/23 00:27:28;;;;;;;6.43;2.17;;;;;;;13.45;44.80;97200.53;10187285;29;20067;-75
2023/03/23 00:32:48;;;;;;;4.32;2.10;;;;;;;13.46;44.84;97196.38;10194750;29;20144;-75
2023/03/23 00:38:08;;;;;;;5.38;2.45;;;;;;;13.44;44.67;97196.28;10155216;29;20067;-75
2023/03/23 00:43:28;;;;;;;3.55;1.90;;;;;;;13.41;44.87;97186.31;10181363;29;20114;-75
2023/03/23 00:48:50;;;;;;;4.68;1.83;;;;;;;13.37;44.83;97177.72;10194310;29;20610;-75
2023/03/23 00:54:10;;;;;;;3.83;2.03;;;;;;;13.38;45.07;97172.81;10181324;29;20183;-75
2023/03/23 00:59:29;;;;;;;3.53;1.85;;;;;;;13.36;44.89;97169.94;10180628;29;20510;-74
2023/03/23 01:04:51;;;;;;;6.47;1.58;;;;;;;13.33;44.98;97157.91;10180835;29;20074;-75
2023/03/23 01:10:17;;;;;;;5.68;1.83;;;;;;;13.31;45.40;97154.97;10193913;29;20119;-75
2023/03/23 01:15:37;;;;;;;3.72;1.73;;;;;;;13.27;45.24;97148.47;10155829;29;20127;-74
2023/03/23 01:20:56;;;;;;;3.85;1.90;;;;;;;13.25;45.03;97142.78;10193862;29;20067;-75
2023/03/23 01:26:21;;;;;;;4.20;1.88;;;;;;;13.24;45.09;97147.66;10166014;29;20039;-75
2023/03/23 01:31:42;;;;;;;4.70;1.92;;;;;;;13.15;45.38;97140.19;10189982;29;20122;-75
2023/03/23 01:37:03;;;;;;;3.72;1.95;;;;;;;13.06;45.34;97132.75;10184659;29;20582;-75
2023/03/23 01:42:31;;;;;;;4.03;2.13;;;;;;;12.93;45.72;97128.63;10179426;29;20079;-76
2023/03/23 01:48:09;;;;;;;5.65;1.92;;;;;;;12.85;45.78;97134.56;10149404;29;20534;-75
2023/03/23 01:53:31;;;;;;;4.60;2.28;;;;;;;12.75;45.64;97125.69;10187262;29;20110;-75
2023/03/23 01:58:52;;;;;;;6.93;2.35;;;;;;;12.67;46.37;97116.88;10110694;29;20043;-75
2023/03/23 02:04:14;;;;;;;5.32;2.53;;;;;;;12.63;46.10;97119.47;10122513;29;20123;-75
2023/03/23 02:09:34;;;;;;;5.20;2.58;;;;;;;12.60;46.14;97109.53;10122774;29;20127;-75
2023/03/23 02:14:54;;;;;;;5.82;1.92;;;;;;;12.61;46.44;97120.09;10109156;29;20118;-75
2023/03/23 02:20:31;;;;;;;4.75;2.20;;;;;;;12.67;46.44;97116.16;10123184;29;20454;-75
2023/03/23 02:26:31;;;;;;;4.63;2.65;;;;;;;12.72;47.10;97100.97;10147782;29;20498;-75
2023/03/23 02:32:13;;;;;;;5.18;2.75;;;;;;;12.68;47.11;97095.91;10075657;29;20127;-75
2023/03/23 02:37:46;;;;;;;5.13;2.65;;;;;;;12.67;47.16;97100.06;10151460;29;20469;-75
2023/03/23 02:43:08;;;;;;;5.65;2.72;;;;;;;12.66;47.05;97092.31;10153824;29;20124;-75
2023/03/23 02:48:29;;;;;;;6.50;3.17;;;;;;;12.66;47.13;97084.63;10154063;29;20071;-75
2023/03/23 02:53:49;;;;;;;4.97;2.78;;;;;;;12.68;47.10;97092.41;10124097;29;20162;-76
2023/03/23 02:59:09;;;;;;;8.25;3.30;;;;;;;12.65;47.10;97085.25;10176426;29;20079;-75
2023/03/23 03:04:29;;;;;;;5.45;3.17;;;;;;;12.58;47.29;97093.34;10175845;29;20476;-75
2023/03/23 03:09:49;;;;;;;7.32;3.13;;;;;;;12.56;47.78;97089.72;10175758;29;20523;-75
2023/03/23 03:15:26;;;;;;;5.40;2.78;;;;;;;12.57;48.08;97097.50;10175630;29;20126;-75
2023/03/23 03:21:00;;;;;;;5.72;2.97;;;;;;;12.55;48.12;97096.69;10162851;29;20554;-75
2023/03/23 03:26:20;;;;;;;7.03;3.17;;;;;;;12.55;48.04;97088.28;10162544;29;20083;-75
2023/03/23 03:31:45;;;;;;;8.52;2.85;;;;;;;12.53;48.18;97091.69;10176282;29;20067;-75
2023/03/23 03:37:06;;;;;;;4.35;2.90;;;;;;;12.57;48.18;97094.69;10175052;29;20067;-75
2023/03/23 03:42:27;;;;;;;5.70;2.80;;;;;;;12.53;47.84;97093.75;10162170;29;20119;-75
2023/03/23 03:47:47;;;;;;;5.90;3.30;;;;;;;12.53;48.63;97090.97;10187711;29;20044;-75
2023/03/23 03:53:09;;;;;;;8.15;2.92;;;;;;;12.52;48.59;97095.13;10174812;29;20131;-75
2023/03/23 03:58:31;;;;;;;5.93;3.13;;;;;;;12.46;48.55;97100.44;10173943;29;20470;-75
2023/03/23 04:04:14;;;;;;;9.80;3.40;;;;;;;12.37;48.66;97101.38;10179441;29;20114;-75
2023/03/23 04:09:34;;;;;;;6.25;3.30;;;;;;;12.36;48.71;97099.94;10186994;29;20083;-75
2023/03/23 04:14:54;;;;;;;5.05;3.10;;;;;;;12.36;48.91;97092.25;10173845;29;20067;-75
2023/03/23 04:20:17;;;;;;;6.20;3.38;;;;;;;12.32;49.11;97103.94;10147654;29;20059;-75
2023/03/23 04:25:41;;;;;;;6.25;3.97;;;;;;;12.27;49.15;97099.50;10149780;29;20055;-75
2023/03/23 04:31:02;;;;;;;6.38;3.70;;;;;;;12.19;49.47;97096.31;10173884;29;20118;-75
2023/03/23 04:36:22;;;;;;;6.47;3.40;;;;;;;12.17;49.84;97101.81;10147273;29;20122;-75
2023/03/23 04:41:53;;;;;;;8.00;3.53;;;;;;;12.18;49.91;97100.44;10176414;29;20119;-75
2023/03/23 04:47:30;;;;;;;7.30;3.43;;;;;;;12.21;50.21;97099.19;10176862;29;20143;-75
2023/03/23 04:52:53;;;;;;;9.02;3.40;;;;;;;12.22;50.41;97102.72;10161329;29;20071;-75
2023/03/23 04:58:14;;;;;;;5.85;3.05;;;;;;;12.29;50.10;97102.41;10173045;29;20079;-75
2023/03/23 05:04:00;;;;;;;5.38;2.95;;;;;;;12.33;50.43;97107.47;10193015;29;20206;-75
2023/03/23 05:09:21;;;;;;;5.90;3.03;;;;;;;12.35;50.16;97115.97;10173219;29;20067;-75
2023/03/23 05:14:42;;;;;;;4.80;2.53;;;;;;;12.43;50.37;97119.19;10149650;29;20477;-75
2023/03/23 05:20:08;;;;;;;5.10;3.03;;;;;;;12.48;50.19;97104.06;10180429;29;20059;-74
2023/03/23 05:25:41;;;;;;;6.38;2.40;;;;;;;12.49;49.98;97111.09;10159053;29;20055;-75
2023/03/23 05:31:08;;;;;;;6.53;2.42;;;;;;;12.53;49.90;97113.34;10166986;29;20052;-75
2023/03/23 05:36:29;;;;;;;5.68;2.72;;;;;;;12.57;49.63;97102.38;10189580;29;20054;-75
2023/03/23 05:42:12;;;;;;;4.32;2.22;;;;;;;12.68;50.00;97101.53;10165034;29;20058;-75
2023/03/23 05:47:43;;;;;;;3.75;2.22;;;;;;;12.86;49.69;97110.81;10189505;29;20126;-75
2023/03/23 05:53:08;;;;;;;3.47;2.00;;;;;;;12.99;49.40;97105.78;10154305;29;20067;-75
2023/03/23 05:58:32;;;;;;;6.27;1.97;;;;;;;13.14;49.17;97116.31;10183681;29;20064;-75
2023/03/23 06:03:53;;;;;;;3.67;1.70;;;;;;;13.31;48.84;97107.34;10154226;29;20058;-74
2023/03/23 06:09:19;;;;;;;6.32;1.67;;;;;;;13.39;48.66;97107.00;10173878;29;20122;-75
2023/03/23 06:15:08;;;;;;;2.55;1.40;;;;;;;13.46;48.29;97087.03;10180610;29;20039;-75
2023/03/23 06:20:50;;;;;;;2.90;1.17;;;;;;;13.53;48.27;97098.53;10186171;29;20106;-75
2023/03/23 06:26:32;;;;;;;5.72;1.50;;;;;;;13.69;47.70;97099.97;10193013;29;20182;-75
2023/03/23 06:31:58;;;;;;;5.38;1.10;;;;;;;13.83;47.23;97108.31;10151070;29;20127;-75
2023/03/23 06:37:20;;;;;;;4.93;1.77;;;;;;;13.96;47.50;97092.72;10164424;29;20126;-75
2023/03/23 06:42:50;;;;;;;3.63;1.25;;;;;;;14.12;46.62;97098.34;10180409;29;20043;-74
2023/03/23 06:48:29;;;;;;;4.55;0.77;;;;;;;14.41;46.78;97095.38;10194751;29;20102;-75
2023/03/23 06:53:48;;;;;;;2.53;0.68;;;;;;;14.50;45.97;97093.66;10173797;29;20110;-75
2023/03/23 06:59:10;;;;;;;2.80;0.80;;;;;;;14.41;45.71;97108.69;10186797;29;20067;-75
2023/03/23 07:04:32;;;;;;;4.35;0.70;;;;;;;14.44;45.81;97110.94;10174120;29;20075;-75
2023/03/23 07:10:08;;;;;;;2.97;0.60;;;;;;;14.55;45.34;97104.41;10155332;29;20167;-75
2023/03/23 07:15:29;;;;;;;4.90;0.70;;;;;;;14.66;45.30;97107.63;10178353;29;20067;-74
2023/03/23 07:20:50;;;;;;;4.55;0.80;;;;;;;14.94;44.90;97122.84;10147633;29;20126;-74
2023/03/23 07:26:12;;;;;;;2.80;0.60;;;;;;;15.35;44.43;97128.00;10174722;29;20119;-75
2023/03/23 07:31:42;;;;;;;2.47;0.52;;;;;;;15.71;44.27;97128.69;10163698;29;20076;-74
2023/03/23 07:37:02;;;;;;;5.25;0.60;;;;;;;16.13;43.67;97140.09;10149665;29;20114;-75
2023/03/23 07:42:26;;;;;;;1.67;0.57;;;;;;;16.24;42.89;97130.63;10175519;29;20079;-75
2023/03/23 07:47:52;;;;;;;4.70;0.63;;;;;;;16.46;42.72;97127.16;10151544;29;20079;-74
2023/03/23 07:53:13;;;;;;;6.60;0.90;;;;;;;17.15;42.24;97135.13;10199068;28;20126;-74
2023/03/23 07:58:34;;;;;;;2.80;0.40;;;;;;;17.43;40.96;97132.47;10212077;28;20085;-75
2023/03/23 08:03:57;;;;;;;4.63;0.85;;;;;;;17.42;40.73;97125.38;10211697;29;20074;-75
2023/03/23 08:09:39;;;;;;;3.92;0.70;;;;;;;17.58;40.74;97122.34;10207814;28;20074;-75
2023/03/23 08:15:29;;;;;;;1.98;0.73;;;;;;;18.00;39.48;97134.91;10174927;28;20470;-74
2023/03/23 08:21:10;;;;;;;5.30;0.80;;;;;;;18.21;39.48;97135.50;10195151;28;20047;-75
2023/03/23 08:27:02;;;;;;;2.55;0.70;;;;;;;18.54;38.65;97135.00;10221236;29;20149;-75
2023/03/23 08:32:40;;;;;;;3.15;0.80;;;;;;;18.72;39.11;97128.38;10220143;28;20047;-75
2023/03/23 08:38:21;;;;;;;3.60;0.80;;;;;;;19.31;37.73;97132.69;10195661;28;20060;-76
2023/03/23 08:44:04;;;;;;;2.20;0.70;;;;;;;19.84;37.07;97133.91;10218156;29;20055;-75
2023/03/23 08:49:25;;;;;;;3.38;0.85;;;;;;;19.40;35.97;97135.03;10227448;28;20114;-75
2023/03/23 08:54:47;;;;;;;5.43;0.55;;;;;;;18.89;36.12;97121.78;10220185;29;20182;-75
2023/03/23 09:00:35;;;;;;;5.28;0.65;;;;;;;20.11;35.98;97115.34;10226593;28;20077;-74
2023/03/23 09:06:02;;;;;;;1.58;0.50;;;;;;;25.67;30.21;97110.63;10233010;29;20047;-75
2023/03/23 09:11:29;;;;;;;1.65;0.40;;;;;;;27.53;25.26;97110.34;10210871;28;20051;-77
2023/03/23 09:16:49;;;;;;;2.92;0.43;;;;;;;31.31;21.49;97105.47;10232608;29;20051;-77
2023/03/23 09:22:09;;;;;;;2.15;0.50;;;;;;;32.28;19.09;97104.34;10218994;29;20046;-77
2023/03/23 09:27:29;;;;;;;3.13;0.50;;;;;;;35.16;16.84;97110.44;10218828;29;20078;-77
2023/03/23 09:32:49;;;;;;;1.77;0.50;;;;;;;39.34;12.13;97114.81;10218929;29;20386;-77
2023/03/23 09:38:12;;;;;;;2.38;0.45;;;;;;;39.71;11.83;97095.88;10205530;29;20094;-79
2023/03/23 09:43:39;;;;;;;1.73;0.40;;;;;;;40.00;10.59;97118.28;10206048;29;20054;-80
2023/03/23 09:49:07;;;;;;;2.30;0.40;;;;;;;35.59;12.01;97123.91;10218034;28;20088;-78
2023/03/23 09:54:36;;;;;;;2.28;0.43;;;;;;;29.08;16.20;97112.03;10204892;29;20060;-76
2023/03/23 10:00:27;;;;;;;1.98;0.40;;;;;;;28.22;18.55;97126.81;10201542;28;20047;-76
2023/03/23 10:05:48;;;;;;;;;;;;;;;26.29;20.23;97139.75;10217700;28;20050;-75
2023/03/23 10:11:33;;;;;;;3.00;0.40;;;;;;;23.71;21.80;97137.25;10217100;29;19978;-76
2023/03/23 10:16:56;;;;;;;1.30;0.45;;;;;;;21.81;23.90;97133.84;10217089;29;20067;-75
2023/03/23 10:22:20;;;;;;;3.30;0.40;;;;;;;21.15;26.17;97137.84;10243350;29;20070;-75
2023/03/23 10:27:55;;;;;;;0.95;0.50;;;;;;;20.94;26.57;97133.19;10190778;29;20051;-75
2023/03/23 10:33:19;;;;;;;2.13;0.47;;;;;;;20.88;26.61;97127.44;10203527;28;20129;-75
2023/03/23 10:38:41;;;;;;;1.90;0.60;;;;;;;20.98;27.35;97122.66;10216600;29;20043;-75
2023/03/23 10:44:01;;;;;;;2.80;0.50;;;;;;;20.70;27.75;97134.22;10229351;29;20044;-75
2023/03/23 10:49:49;;;;;;;3.17;0.60;;;;;;;20.24;29.51;97123.41;10215914;29;20043;-75
2023/03/23 10:55:17;;;;;;;2.45;0.73;;;;;;;20.05;30.08;97123.72;10202540;29;20126;-75
2023/03/23 11:00:43;;;;;;;4.65;0.60;;;;;;;19.93;30.17;97124.19;10213508;29;20059;-76
2023/03/23 11:06:04;;;;;;;3.30;0.60;;;;;;;19.90;30.37;97128.38;10161206;29;20486;-76
2023/03/23 11:11:26;;;;;;;2.55;0.60;;;;;;;19.96;30.63;97132.03;10183820;29;20520;-76
2023/03/23 11:17:00;;;;;;;1.42;0.43;;;;;;;20.28;31.17;97129.16;10183132;29;20040;-75
2023/03/23 11:22:25;;;;;;;2.25;0.50;;;;;;;21.99;29.71;97117.78;10148778;29;20517;-76
2023/03/23 11:27:46;;;;;;;2.08;0.70;;;;;;;22.68;28.87;97125.69;10198800;29;20047;-75
2023/03/23 11:33:07;;;;;;;1.90;0.60;;;;;;;23.95;28.30;97123.16;10159191;29;20040;-75
2023/03/23 11:38:27;;;;;;;3.42;0.57;;;;;;;23.95;27.21;97122.44;10183262;29;20043;-75
2023/03/23 11:43:48;;;;;;;2.28;0.77;;;;;;;23.10;27.17;97131.81;10187530;29;20503;-75
2023/03/23 11:49:18;;;;;;;2.90;0.70;;;;;;;22.30;28.10;97121.03;10161646;29;20082;-75
2023/03/23 11:54:50;;;;;;;1.55;0.43;;;;;;;22.09;28.29;97113.66;10161662;29;20079;-75
2023/03/23 12:00:18;;;;;;;2.17;0.50;;;;;;;21.75;28.78;97111.78;10194663;29;20043;-75
2023/03/23 12:05:52;;;;;;;1.73;0.57;;;;;;;21.30;29.69;97111.13;10195663;29;20487;-75
2023/03/23 12:11:31;;;;;;;2.72;0.70;;;;;;;21.46;29.40;97096.47;10162240;28;20054;-75
2023/03/23 12:17:00;;;;;;;2.35;0.57;;;;;;;21.47;29.79;97097.19;10199807;29;20039;-75
2023/03/23 12:22:33;;;;;;;1.77;0.70;;;;;;;21.25;29.96;97103.22;10219814;28;20044;-75
2023/03/23 12:28:19;;;;;;;1.45;0.40;;;;;;;20.85;30.65;97106.84;10173240;29;20071;-75
2023/03/23 12:34:16;;;;;;;2.53;0.50;;;;;;;20.55;31.41;97121.88;10186030;29;20122;-75
2023/03/23 12:39:40;;;;;;;2.78;0.55;;;;;;;20.31;31.65;97112.91;10183263;29;20074;-74
2023/03/23 12:45:30;;;;;;;1.85;0.60;;;;;;;19.99;32.16;97107.31;10181829;29;20044;-75
2023/03/23 12:51:14;;;;;;;2.75;0.60;;;;;;;19.71;32.80;97101.78;10170765;29;20070;-74
2023/03/23 12:56:40;;;;;;;2.42;0.60;;;;;;;19.43;33.34;97091.25;10157529;29;20047;-75
2023/03/23 13:02:22;;;;;;;1.00;0.32;;;;;;;19.37;34.04;97093.22;10144824;29;20398;-75
2023/03/23 13:08:10;;;;;;;1.52;0.40;;;;;;;19.17;34.22;97104.78;10169031;29;20102;-75
2023/03/23 13:13:52;;;;;;;5.75;0.57;;;;;;;18.94;35.09;97097.88;10170763;29;20067;-76
2023/03/23 13:19:27;;;;;;;4.13;0.60;;;;;;;18.79;35.52;97113.03;10167564;29;20075;-75
2023/03/23 13:24:51;;;;;;;1.88;0.80;;;;;;;18.74;35.48;97100.19;10195810;29;20067;-75
2023/03/23 13:30:24;;;;;;;2.97;0.75;;;;;;;18.71;36.00;97104.34;10169536;29;20074;-74
2023/03/23 13:35:44;;;;;;;2.85;0.50;;;;;;;18.67;35.72;97095.78;10185340;29;20040;-76
2023/03/23 13:41:12;;;;;;;3.75;0.80;;;;;;;18.74;36.37;97094.53;10189144;29;20478;-76
2023/03/23 13:46:32;;;;;;;1.30;0.38;;;;;;;18.70;36.22;97111.38;10163207;29;20078;-75
2023/03/23 13:52:00;;;;;;;1.20;0.60;;;;;;;18.68;36.62;97103.56;10147955;29;20135;-75
2023/03/23 13:57:24;;;;;;;1.45;0.60;;;;;;;18.71;36.50;97110.00;10164224;29;20051;-76
2023/03/23 14:02:44;;;;;;;1.45;0.50;;;;;;;18.67;36.96;97098.59;10167244;29;20122;-75
2023/03/23 14:08:08;;;;;;;2.60;0.50;;;;;;;18.65;37.01;97099.28;10215967;29;20066;-75
2023/03/23 14:14:07;;;;;;;2.80;0.50;;;;;;;18.70;37.19;97094.44;10241754;29;20074;-75
2023/03/23 14:19:29;;;;;;;1.50;0.45;;;;;;;18.72;37.30;97100.88;10171716;29;20079;-76
2023/03/23 14:24:50;;;;;;;3.10;0.70;;;;;;;18.63;37.92;97104.13;10163049;29;20115;-75
2023/03/23 14:30:15;;;;;;;1.55;0.70;;;;;;;18.62;38.09;97105.50;10190018;29;20106;-75
2023/03/23 14:35:36;;;;;;;3.13;0.60;;;;;;;18.61;38.28;97096.28;10189811;29;20110;-76
2023/03/23 14:40:59;;;;;;;2.15;0.50;;;;;;;18.63;38.38;97113.31;10148765;29;20096;-75
2023/03/23 14:46:20;;;;;;;1.83;0.52;;;;;;;18.60;38.66;97106.16;10148262;29;20067;-75
2023/03/23 14:51:47;;;;;;;2.22;0.60;;;;;;;18.65;38.46;97118.34;10135882;29;20068;-75
2023/03/23 14:57:23;;;;;;;1.52;0.68;;;;;;;18.68;38.86;97114.16;10148394;29;20055;-76
2023/03/23 15:02:47;;;;;;;4.15;0.70;;;;;;;18.66;38.87;97116.94;10161185;29;20119;-76
2023/03/23 15:08:18;;;;;;;2.42;0.60;;;;;;;18.73;39.21;97118.56;10161123;29;20402;-75
2023/03/23 15:13:42;;;;;;;2.15;0.57;;;;;;;18.71;38.99;97101.50;10148258;29;20127;-75
2023/03/23 15:19:11;;;;;;;1.65;0.50;;;;;;;18.60;39.18;97092.75;10147819;29;20498;-75
2023/03/23 15:24:37;;;;;;;2.95;0.70;;;;;;;18.62;39.31;97088.53;10147773;29;20507;-74
2023/03/23 15:30:00;;;;;;;3.65;0.70;;;;;;;18.54;39.67;97067.19;10147427;29;20454;-75
2023/03/23 15:35:22;;;;;;;2.60;0.65;;;;;;;18.56;39.43;97091.94;10186405;29;20094;-75
2023/03/23 15:40:45;;;;;;;1.50;0.70;;;;;;;18.55;39.99;97096.16;10147544;29;20122;-75
2023/03/23 15:46:18;;;;;;;1.33;0.50;;;;;;;18.44;40.22;97114.94;10162314;29;20044;-75
2023/03/23 15:51:37;;;;;;;1.40;0.60;;;;;;;18.27;40.53;97130.72;10174114;29;20052;-76
2023/03/23 15:56:57;;;;;;;2.05;0.50;;;;;;;18.01;41.04;97139.19;10148712;29;20087;-75
2023/03/23 16:02:22;;;;;;;2.05;0.43;;;;;;;17.78;41.90;97145.56;10160915;29;20040;-75
2023/03/23 16:07:43;;;;;;;0.88;0.45;;;;;;;17.77;41.69;97143.41;10174447;29;20054;-75
2023/03/23 16:13:05;;;;;;;1.20;0.40;;;;;;;17.56;42.53;97150.50;10215120;29;20063;-75
2023/03/23 16:18:26;;;;;;;1.25;0.63;;;;;;;17.45;42.44;97167.09;10187064;29;20051;-75
2023/03/23 16:23:47;;;;;;;2.55;0.50;;;;;;;17.38;42.89;97151.38;10186816;29;20122;-75
2023/03/23 16:29:12;;;;;;;1.67;0.47;;;;;;;17.28;43.21;97142.59;10173873;29;20075;-75
2023/03/23 16:34:53;;;;;;;1.92;0.50;;;;;;;17.05;43.30;97160.16;10178797;29;20056;-75
2023/03/23 16:40:15;;;;;;;2.13;0.38;;;;;;;16.93;43.68;97163.31;10186911;29;20391;-75
2023/03/23 16:45:40;;;;;;;1.35;0.40;;;;;;;16.82;44.44;97167.88;10190706;29;20055;-76
2023/03/23 16:51:04;;;;;;;2.53;0.50;;;;;;;16.72;44.31;97164.72;10176544;29;20066;-76
2023/03/23 16:56:25;;;;;;;2.47;0.50;;;;;;;16.62;44.91;97169.97;10211917;29;20066;-76
2023/03/23 17:01:46;;;;;;;1.55;0.35;;;;;;;16.52;45.29;97169.63;10230602;28;20100;-76
2023/03/23 17:07:06;;;;;;;1.70;0.68;;;;;;;16.37;45.89;97165.56;10217493;28;20039;-77
2023/03/23 17:12:27;;;;;;;1.90;0.80;;;;;;;16.23;45.74;97174.25;10237416;28;20051;-77
2023/03/23 17:17:48;;;;;;;1.00;0.50;;;;;;;16.11;46.28;97182.22;10222931;29;20505;-76
2023/03/23 17:23:09;;;;;;;2.92;0.85;;;;;;;16.05;46.19;97178.50;10235450;28;20434;-76
2023/03/23 17:28:30;;;;;;;2.35;0.50;;;;;;;16.00;46.76;97177.59;10225345;29;20405;-76
2023/03/23 17:34:18;;;;;;;0.98;0.57;;;;;;;15.91;46.89;97201.19;10234210;29;20051;-75
2023/03/23 17:39:39;;;;;;;2.20;0.77;;;;;;;15.82;46.92;97205.78;10223804;28;20039;-76
2023/03/23 17:45:05;;;;;;;1.98;0.88;;;;;;;15.82;47.45;97207.88;10224728;29;20050;-76
2023/03/23 17:50:31;;;;;;;2.08;0.80;;;;;;;15.90;47.33;97211.72;10236428;29;20074;-76
2023/03/23 17:55:52;;;;;;;2.55;0.98;;;;;;;15.93;47.46;97215.34;10249258;29;20510;-76
2023/03/23 18:01:13;;;;;;;2.13;1.10;;;;;;;15.92;47.42;97219.50;10214963;29;20498;-76
2023/03/23 18:06:33;;;;;;;2.20;0.90;;;;;;;15.94;47.31;97225.25;10195805;29;20044;-77
2023/03/23 18:11:56;;;;;;;2.58;1.10;;;;;;;15.97;47.01;97233.09;10180691;29;20051;-74
2023/03/23 18:17:17;;;;;;;3.72;1.85;;;;;;;16.01;47.38;97232.53;10199190;29;20040;-77
2023/03/23 18:23:42;;;;;;;3.15;1.40;;;;;;;16.01;47.68;97238.16;10184330;29;20047;-76
2023/03/23 18:29:18;;;;;;;1.98;0.85;;;;;;;15.96;47.48;97219.69;10210272;29;20091;-75
2023/03/23 18:34:40;;;;;;;1.52;0.70;;;;;;;15.85;47.55;97220.66;10184633;29;20055;-76
2023/03/23 18:40:42;;;;;;;1.50;0.70;;;;;;;15.72;47.70;97231.44;10213458;29;20056;-76
2023/03/23 18:46:32;;;;;;;1.23;0.70;;;;;;;15.64;47.90;97236.75;10192558;29;20060;-76
2023/03/23 18:51:52;;;;;;;2.97;0.88;;;;;;;15.63;47.95;97243.75;10180074;29;20047;-75
2023/03/23 18:57:14;;;;;;;2.70;0.85;;;;;;;15.66;48.11;97241.75;10178086;29;20083;-75
2023/03/23 19:02:38;;;;;;;2.28;0.75;;;;;;;15.72;47.89;97236.34;10179463;29;20098;-75
2023/03/23 19:07:59;;;;;;;2.70;0.95;;;;;;;15.74;47.93;97245.59;10224449;29;20067;-75
2023/03/23 19:13:20;;;;;;;2.38;0.88;;;;;;;15.77;47.77;97243.59;10230731;29;20043;-75
2023/03/23 19:18:41;;;;;;;2.65;1.27;;;;;;;15.79;47.76;97251.38;10202652;29;20726;-75
2023/03/23 19:24:02;;;;;;;1.80;1.00;;;;;;;15.79;47.88;97249.28;10199053;29;20130;-76
2023/03/23 19:29:23;;;;;;;3.10;1.35;;;;;;;15.79;47.71;97246.47;10217964;29;20051;-76
2023/03/23 19:34:47;;;;;;;5.32;1.60;;;;;;;15.78;47.98;97244.31;10220274;28;20069;-76
2023/03/23 19:40:18;;;;;;;3.30;1.42;;;;;;;15.79;47.80;97242.94;10222259;29;20430;-75
2023/03/23 19:45:59;;;;;;;2.92;1.63;;;;;;;15.78;47.73;97244.31;10223737;29;20058;-75
2023/03/23 19:51:21;;;;;;;4.78;1.70;;;;;;;15.76;48.07;97235.78;10232256;29;20047;-76
2023/03/23 19:56:50;;;;;;;2.83;1.23;;;;;;;15.73;48.02;97232.91;10224356;29;20561;-77
2023/03/23 20:02:11;;;;;;;4.90;2.03;;;;;;;15.71;48.12;97232.78;10217468;28;20505;-76
2023/03/23 20:08:10;;;;;;;3.55;1.90;;;;;;;15.65;48.38;97226.94;10220158;29;20390;-75
2023/03/23 20:13:31;;;;;;;3.35;1.63;;;;;;;15.65;48.01;97229.03;10243618;29;20063;-76
2023/03/23 20:19:22;;;;;;;2.75;1.60;;;;;;;15.60;48.82;97219.69;10238535;29;20051;-77
2023/03/23 20:25:43;;;;;;;3.28;1.75;;;;;;;15.56;48.46;97219.53;10226313;29;20043;-76
2023/03/23 20:31:40;;;;;;;5.40;1.90;;;;;;;15.51;48.57;97223.53;10237810;29;20072;-78
2023/03/23 20:37:29;;;;;;;4.85;1.88;;;;;;;15.46;48.76;97216.31;10245289;29;20051;-75
2023/03/23 20:42:56;;;;;;;3.17;1.63;;;;;;;15.38;48.90;97224.41;10221332;29;20066;-77
2023/03/23 20:48:45;;;;;;;3.15;1.90;;;;;;;15.34;48.87;97219.34;10233070;29;20054;-75
2023/03/23 20:54:05;;;;;;;6.53;2.50;;;;;;;15.29;48.98;97208.59;10221855;28;20039;-76
2023/03/23 20:59:54;;;;;;;3.95;1.92;;;;;;;15.23;49.09;97188.66;10234096;29;20051;-76
2023/03/23 21:05:15;;;;;;;8.50;2.05;;;;;;;15.15;49.14;97186.97;10234549;29;20051;-76
2023/03/23 21:10:36;;;;;;;4.97;2.30;;;;;;;15.12;49.39;97191.03;10247422;29;20043;-75
2023/03/23 21:15:57;;;;;;;5.35;2.38;;;;;;;15.15;49.55;97186.22;10194670;29;20047;-76
2023/03/23 21:21:18;;;;;;;6.57;2.58;;;;;;;15.11;49.49;97195.22;10191828;29;20118;-76
2023/03/23 21:26:38;;;;;;;5.75;3.08;;;;;;;15.06;49.63;97188.00;10190913;29;20050;-75
2023/03/23 21:32:00;;;;;;;6.05;2.78;;;;;;;15.00;49.74;97184.22;10190914;29;20047;-76
2023/03/23 21:37:28;;;;;;;5.97;2.10;;;;;;;15.04;49.81;97184.38;10179845;29;20127;-75
2023/03/23 21:42:50;;;;;;;6.40;2.55;;;;;;;15.00;49.90;97175.78;10177982;29;20521;-76
2023/03/23 21:48:11;;;;;;;5.40;2.53;;;;;;;14.96;50.27;97173.53;10165550;29;20072;-75
2023/03/23 21:53:35;;;;;;;7.65;2.88;;;;;;;14.91;50.13;97169.09;10214818;29;20512;-75
2023/03/23 21:58:56;;;;;;;5.43;3.08;;;;;;;14.86;50.46;97170.28;10218852;29;20086;-75
2023/03/23 22:04:18;;;;;;;4.15;2.60;;;;;;;14.77;50.62;97163.63;10245258;29;20078;-76
2023/03/23 22:09:43;;;;;;;5.03;2.45;;;;;;;14.73;50.92;97174.69;10219311;29;20109;-76
2023/03/23 22:15:07;;;;;;;6.90;2.88;;;;;;;14.72;50.83;97162.00;10219253;28;20054;-75
2023/03/23 22:20:28;;;;;;;;;;;;;;;14.65;51.67;97163.09;10219541;28;20043;-75
2023/03/23 22:25:49;;;;;;;3.95;2.10;;;;;;;14.59;51.09;97160.75;10231886;29;19923;-75
2023/03/23 22:31:12;;;;;;;5.10;2.45;;;;;;;14.55;51.16;97157.03;10205533;29;20410;-76
2023/03/23 22:36:34;;;;;;;4.13;2.47;;;;;;;14.58;51.38;97139.66;10232077;28;20054;-76
2023/03/23 22:41:55;;;;;;;4.97;2.65;;;;;;;14.59;51.46;97157.97;10231822;28;20473;-76
2023/03/23 22:47:16;;;;;;;4.03;2.28;;;;;;;14.60;51.49;97150.97;10232415;29;20445;-76
2023/03/23 22:52:37;;;;;;;7.13;2.80;;;;;;;14.70;51.37;97135.91;10168790;29;20051;-76
2023/03/23 22:57:58;;;;;;;6.90;2.03;;;;;;;14.67;51.47;97137.91;10219292;29;20059;-75
2023/03/23 23:03:19;;;;;;;6.05;2.70;;;;;;;14.62;51.54;97125.06;10188812;29;20044;-76
2023/03/23 23:08:40;;;;;;;4.93;2.85;;;;;;;14.47;51.81;97132.16;10163826;29;20123;-75
2023/03/23 23:14:01;;;;;;;4.97;2.70;;;;;;;14.33;52.14;97128.72;10205126;29;20467;-75
2023/03/23 23:19:23;;;;;;;4.93;3.00;;;;;;;14.25;52.38;97122.75;10178698;29;20078;-75
2023/03/23 23:24:45;;;;;;;7.05;3.00;;;;;;;14.26;52.35;97119.31;10190124;29;20068;-76
2023/03/23 23:30:07;;;;;;;4.63;2.28;;;;;;;14.26;52.33;97108.06;10191007;29;20071;-76
2023/03/23 23:35:28;;;;;;;5.57;2.65;;;;;;;14.29;52.47;97106.09;10190641;29;20074;-75
2023/03/23 23:40:49;;;;;;;4.20;2.38;;;;;;;14.31;52.52;97095.66;10176775;29;20068;-75
2023/03/23 23:46:10;;;;;;;4.38;2.65;;;;;;;14.29;52.62;97086.44;10189248;29;20048;-75
2023/03/23 23:51:32;;;;;;;6.72;3.45;;;;;;;14.26;52.71;97096.13;10189509;29;20059;-75
2023/03/23 23:56:53;;;;;;;6.50;3.28;;;;;;;14.19;53.25;97097.25;10178560;29;20687;-76
